KFEP/FEP METAR and TAF weather

Enter ICAO airport designator
Station Type Date Time Source
KFEP METAR 2021/07/30 06:35 UTC NOAA

KFEP 300635Z AUTO 10004KT 10SM CLR 18/18 A3011 RMK AO2 T01750175


Station Type Date Time Source
KFEP Decoded METAR 2021/07/30 06:35 UTC NOAA

Freeport, Albertus Airport, IL, United States (KFEP) 42-14-47N 089-34-56W
Jul 30, 2021 - 02:35 AM EDT / 2021.07.30 0635 UTC
Wind: from the E (100 degrees) at 5 MPH (4 KT):0
Visibility: 10 mile(s):0
Sky conditions: clear
Temperature: 63.5 F (17.5 C)
Dew Point: 63.5 F (17.5 C)
Relative Humidity: 100%
Pressure (altimeter): 30.11 in. Hg (1019 hPa)
ob: KFEP 300635Z AUTO 10004KT 10SM CLR 18/18 A3011 RMK AO2 T01750175
cycle: 6

Station Type Date Time Source
KFEP TAF UTC NOAA

Error!

Example: see airport list